Time;durP1;ratioP1;P1;durP2;ratioP2;P2;SDS_P1;SDS_P2;PMS_P1;PMS_P2;Temp;Humidity;BMP_temperature;BMP_pressure;BME280_temperature;BME280_humidity;BME280_pressure;Samples;Min_cycle;Max_cycle;Signal;HPM_P1;HPM_P2
2023/11/05 00:01:47;;;;;;;17.30;13.57;;;;;;;;;;6127297;23;20454;-75
2023/11/05 00:04:13;;;;;;;15.95;13.57;;;;;;;;;;6153837;23;20013;-76
2023/11/05 00:06:39;;;;;;;22.83;17.38;;;;;;;;;;6154365;23;20013;-75
2023/11/05 00:09:05;;;;;;;19.73;13.38;;;;;;;;;;6156187;23;20052;-76
2023/11/05 00:11:32;;;;;;;18.20;13.40;;;;;;;;;;6156359;23;20528;-76
2023/11/05 00:13:57;;;;;;;19.20;14.13;;;;;;;;;;6167151;23;20021;-75
2023/11/05 00:16:23;;;;;;;20.88;14.35;;;;;;;;;;6173335;23;20445;-75
2023/11/05 00:18:49;;;;;;;15.32;13.68;;;;;;;;;;6159235;23;20013;-75
2023/11/05 00:21:15;;;;;;;16.33;11.70;;;;;;;;;;6154146;23;20010;-75
2023/11/05 00:23:41;;;;;;;21.67;15.10;;;;;;;;;;6153413;23;20017;-74
2023/11/05 00:26:07;;;;;;;21.98;17.48;;;;;;;;;;6154574;23;20009;-76
2023/11/05 00:28:33;;;;;;;15.07;13.68;;;;;;;;;;6155425;23;20025;-74
2023/11/05 00:30:59;;;;;;;20.80;13.25;;;;;;;;;;6154470;23;20133;-75
2023/11/05 00:33:26;;;;;;;17.65;14.38;;;;;;;;;;6151623;23;20018;-74
2023/11/05 00:35:51;;;;;;;28.30;15.63;;;;;;;;;;6150823;23;20084;-75
2023/11/05 00:38:18;;;;;;;20.65;13.32;;;;;;;;;;6175605;23;20088;-75
2023/11/05 00:40:44;;;;;;;17.15;15.27;;;;;;;;;;6152672;23;20013;-75
2023/11/05 00:43:10;;;;;;;18.85;16.83;;;;;;;;;;6151958;23;20055;-78
2023/11/05 00:45:36;;;;;;;16.45;12.88;;;;;;;;;;6126600;23;20017;-74
2023/11/05 00:48:02;;;;;;;19.55;14.23;;;;;;;;;;6152150;23;20053;-76
2023/11/05 00:50:28;;;;;;;19.80;15.15;;;;;;;;;;6151786;23;20018;-76
2023/11/05 00:52:54;;;;;;;21.40;19.13;;;;;;;;;;6152351;23;20009;-77
2023/11/05 00:55:20;;;;;;;19.17;15.63;;;;;;;;;;6174998;23;20028;-77
2023/11/05 00:57:46;;;;;;;22.02;16.45;;;;;;;;;;6151990;23;20358;-76
2023/11/05 01:00:12;;;;;;;20.45;14.90;;;;;;;;;;6125800;23;20350;-76
2023/11/05 01:02:38;;;;;;;19.52;16.02;;;;;;;;;;6150399;23;20013;-75
2023/11/05 01:05:05;;;;;;;20.90;14.77;;;;;;;;;;6152408;23;20052;-74
2023/11/05 01:07:32;;;;;;;20.13;15.07;;;;;;;;;;6128923;23;20022;-75
2023/11/05 01:09:58;;;;;;;19.38;14.55;;;;;;;;;;6156185;23;20029;-75
2023/11/05 01:12:24;;;;;;;14.95;13.07;;;;;;;;;;6156161;23;20093;-74
2023/11/05 01:14:50;;;;;;;19.80;16.27;;;;;;;;;;6155431;23;20018;-75
2023/11/05 01:17:16;;;;;;;19.63;16.08;;;;;;;;;;6153399;23;20041;-76
2023/11/05 01:19:43;;;;;;;15.70;13.82;;;;;;;;;;6154114;23;20065;-76
2023/11/05 01:22:09;;;;;;;20.25;17.55;;;;;;;;;;6154618;23;20013;-76
2023/11/05 01:24:35;;;;;;;18.70;14.88;;;;;;;;;;6155847;23;20037;-76
2023/11/05 01:27:02;;;;;;;14.60;12.93;;;;;;;;;;6155698;23;20009;-77
2023/11/05 01:29:28;;;;;;;15.43;12.98;;;;;;;;;;6154367;23;20055;-77
2023/11/05 01:31:54;;;;;;;15.18;13.57;;;;;;;;;;6154827;23;20014;-76
2023/11/05 01:34:20;;;;;;;16.65;13.75;;;;;;;;;;6153696;23;20022;-75
2023/11/05 01:36:46;;;;;;;16.40;13.10;;;;;;;;;;6151047;23;20016;-76
2023/11/05 01:39:13;;;;;;;15.55;13.80;;;;;;;;;;6152221;23;20021;-77
2023/11/05 01:41:39;;;;;;;22.23;16.13;;;;;;;;;;6150714;23;20014;-77
2023/11/05 01:44:05;;;;;;;15.65;13.30;;;;;;;;;;6151753;23;20032;-76
2023/11/05 01:46:31;;;;;;;20.55;17.58;;;;;;;;;;6150612;23;20463;-78
2023/11/05 01:48:57;;;;;;;17.50;14.88;;;;;;;;;;6151852;23;20028;-76
2023/11/05 01:51:23;;;;;;;19.85;16.45;;;;;;;;;;6150156;23;20576;-77
2023/11/05 01:53:52;;;;;;;16.63;12.25;;;;;;;;;;6126363;23;20013;-77
2023/11/05 01:56:19;;;;;;;20.50;14.55;;;;;;;;;;6175302;23;20496;-76
2023/11/05 01:58:45;;;;;;;21.75;13.52;;;;;;;;;;6150921;23;20014;-77
2023/11/05 02:01:11;;;;;;;14.20;12.65;;;;;;;;;;6127957;23;20020;-77
2023/11/05 02:03:40;;;;;;;15.40;13.88;;;;;;;;;;6128569;23;20044;-79
2023/11/05 02:06:06;;;;;;;13.65;12.32;;;;;;;;;;6128074;23;20064;-75
2023/11/05 02:08:33;;;;;;;17.42;15.55;;;;;;;;;;6152933;23;20025;-76
2023/11/05 02:10:58;;;;;;;14.25;12.93;;;;;;;;;;6128290;23;20358;-77
2023/11/05 02:13:25;;;;;;;15.48;13.45;;;;;;;;;;6154004;23;20017;-76
2023/11/05 02:15:52;;;;;;;18.95;12.73;;;;;;;;;;6153907;23;20458;-75
2023/11/05 02:18:18;;;;;;;12.75;11.52;;;;;;;;;;6154030;23;20013;-76
2023/11/05 02:20:44;;;;;;;14.60;11.50;;;;;;;;;;6154047;23;20017;-76
2023/11/05 02:23:17;;;;;;;13.70;12.40;;;;;;;;;;6152337;23;20044;-77
2023/11/05 02:25:43;;;;;;;16.50;14.57;;;;;;;;;;6152399;23;20009;-77
2023/11/05 02:28:09;;;;;;;11.98;10.82;;;;;;;;;;6152569;23;20048;-78
2023/11/05 02:30:35;;;;;;;15.07;11.30;;;;;;;;;;6153751;23;20014;-77
2023/11/05 02:33:03;;;;;;;11.90;10.70;;;;;;;;;;6127670;23;20013;-77
2023/11/05 02:35:29;;;;;;;13.82;11.00;;;;;;;;;;6153861;23;20024;-77
2023/11/05 02:37:55;;;;;;;13.63;12.43;;;;;;;;;;6127079;23;20013;-76
2023/11/05 02:40:21;;;;;;;14.68;13.25;;;;;;;;;;6153533;23;20013;-76
2023/11/05 02:42:47;;;;;;;10.77;9.82;;;;;;;;;;6153631;23;20501;-76
2023/11/05 02:45:13;;;;;;;13.18;11.95;;;;;;;;;;6153424;23;20481;-76
2023/11/05 02:47:39;;;;;;;11.32;10.27;;;;;;;;;;6151987;23;20044;-75
2023/11/05 02:50:06;;;;;;;11.85;10.82;;;;;;;;;;6154006;23;20028;-76
2023/11/05 02:52:32;;;;;;;15.02;13.00;;;;;;;;;;6153852;23;20462;-76
2023/11/05 02:55:00;;;;;;;10.05;9.18;;;;;;;;;;6152237;23;20023;-77
2023/11/05 02:57:27;;;;;;;10.65;9.75;;;;;;;;;;6153075;23;20096;-76
2023/11/05 02:59:53;;;;;;;10.75;9.95;;;;;;;;;;6152319;23;20140;-76
2023/11/05 03:02:19;;;;;;;11.95;10.75;;;;;;;;;;6153549;23;20017;-75
2023/11/05 03:04:45;;;;;;;12.30;11.20;;;;;;;;;;6155218;23;20017;-75
2023/11/05 03:07:14;;;;;;;15.02;13.63;;;;;;;;;;6159331;23;20048;-77
2023/11/05 03:09:41;;;;;;;9.50;8.77;;;;;;;;;;6178929;23;20060;-75
2023/11/05 03:12:07;;;;;;;11.15;10.20;;;;;;;;;;6158960;23;20013;-77
2023/11/05 03:14:33;;;;;;;11.35;10.35;;;;;;;;;;6154139;23;20084;-78
2023/11/05 03:17:00;;;;;;;11.75;10.95;;;;;;;;;;6154155;23;20013;-76
2023/11/05 03:19:26;;;;;;;10.77;9.95;;;;;;;;;;6152207;23;20014;-76
2023/11/05 03:21:52;;;;;;;8.77;8.18;;;;;;;;;;6153701;23;20051;-76
2023/11/05 03:24:18;;;;;;;12.02;11.02;;;;;;;;;;6153524;23;20009;-76
2023/11/05 03:26:44;;;;;;;10.45;9.55;;;;;;;;;;6153583;23;20072;-76
2023/11/05 03:29:11;;;;;;;12.48;11.32;;;;;;;;;;6152185;23;20040;-74
2023/11/05 03:31:37;;;;;;;8.15;7.50;;;;;;;;;;6152632;23;20040;-74
2023/11/05 03:34:03;;;;;;;11.73;10.65;;;;;;;;;;6151192;23;20399;-73
2023/11/05 03:36:29;;;;;;;10.18;9.38;;;;;;;;;;6151420;23;20013;-74
2023/11/05 03:38:56;;;;;;;10.43;9.63;;;;;;;;;;6151253;23;20018;-74
2023/11/05 03:41:22;;;;;;;15.95;11.60;;;;;;;;;;6149032;23;20045;-73
2023/11/05 03:43:48;;;;;;;12.88;11.95;;;;;;;;;;6150466;23;20370;-72
2023/11/05 03:46:14;;;;;;;10.13;9.32;;;;;;;;;;6152741;23;20009;-73
2023/11/05 03:48:41;;;;;;;10.45;9.75;;;;;;;;;;6151188;23;20032;-74
2023/11/05 03:51:14;;;;;;;9.32;8.57;;;;;;;;;;6150295;23;20033;-74
2023/11/05 03:53:40;;;;;;;9.23;8.60;;;;;;;;;;6152614;23;20017;-73
2023/11/05 03:56:07;;;;;;;10.30;9.50;;;;;;;;;;6126776;23;20447;-73
2023/11/05 03:58:33;;;;;;;9.57;8.75;;;;;;;;;;6126560;23;20018;-73
2023/11/05 04:00:59;;;;;;;9.95;9.18;;;;;;;;;;6152840;23;20349;-73
2023/11/05 04:03:25;;;;;;;8.68;8.07;;;;;;;;;;6151295;23;20014;-74
2023/11/05 04:05:52;;;;;;;8.35;7.65;;;;;;;;;;6153113;23;20410;-74
2023/11/05 04:08:18;;;;;;;8.70;8.10;;;;;;;;;;6152253;23;20482;-73
2023/11/05 04:10:44;;;;;;;9.00;8.35;;;;;;;;;;6152632;23;20044;-74
2023/11/05 04:13:09;;;;;;;9.20;8.50;;;;;;;;;;6150801;23;20315;-74
2023/11/05 04:15:35;;;;;;;9.70;9.02;;;;;;;;;;6175575;23;20013;-73
2023/11/05 04:18:01;;;;;;;8.77;8.18;;;;;;;;;;6150728;23;20013;-73
2023/11/05 04:20:27;;;;;;;8.40;7.75;;;;;;;;;;6150606;23;20023;-72
2023/11/05 04:22:54;;;;;;;8.38;7.60;;;;;;;;;;6152409;23;20041;-73
2023/11/05 04:25:20;;;;;;;11.07;10.27;;;;;;;;;;6152241;23;20018;-73
2023/11/05 04:27:46;;;;;;;9.13;8.52;;;;;;;;;;6152570;23;20410;-73
2023/11/05 04:30:12;;;;;;;8.95;8.27;;;;;;;;;;6153002;23;20100;-73
2023/11/05 04:32:38;;;;;;;9.63;7.88;;;;;;;;;;6152346;23;20089;-75
2023/11/05 04:35:04;;;;;;;9.98;9.27;;;;;;;;;;6152946;23;20087;-73
2023/11/05 04:37:30;;;;;;;9.73;9.02;;;;;;;;;;6153202;23;20044;-74
2023/11/05 04:39:59;;;;;;;9.63;8.93;;;;;;;;;;6152411;23;20010;-74
2023/11/05 04:42:25;;;;;;;9.55;8.57;;;;;;;;;;6153219;23;20025;-73
2023/11/05 04:44:51;;;;;;;10.40;9.48;;;;;;;;;;6155735;23;20013;-74
2023/11/05 04:47:17;;;;;;;8.60;7.78;;;;;;;;;;6168769;23;20061;-74
2023/11/05 04:49:44;;;;;;;9.63;8.90;;;;;;;;;;6169056;23;20017;-74
2023/11/05 04:52:10;;;;;;;7.47;6.88;;;;;;;;;;6166497;23;20013;-74
2023/11/05 04:54:40;;;;;;;8.32;7.68;;;;;;;;;;6153891;23;20063;-74
2023/11/05 04:57:06;;;;;;;8.18;7.47;;;;;;;;;;6153247;23;20025;-73
2023/11/05 04:59:34;;;;;;;7.90;7.30;;;;;;;;;;6176382;23;20017;-73
2023/11/05 05:02:00;;;;;;;9.15;8.45;;;;;;;;;;6151326;23;20277;-74
2023/11/05 05:04:27;;;;;;;10.65;7.25;;;;;;;;;;6152235;23;20044;-73
2023/11/05 05:06:53;;;;;;;7.25;6.13;;;;;;;;;;6150648;23;20025;-74
2023/11/05 05:09:19;;;;;;;7.50;6.93;;;;;;;;;;6150711;23;20021;-74
2023/11/05 05:11:46;;;;;;;8.07;7.38;;;;;;;;;;6150973;23;20084;-74
2023/11/05 05:14:12;;;;;;;7.90;7.07;;;;;;;;;;6150802;23;20017;-74
2023/11/05 05:16:38;;;;;;;8.38;7.47;;;;;;;;;;6150298;23;20009;-74
2023/11/05 05:19:04;;;;;;;8.02;7.38;;;;;;;;;;6152099;23;20017;-74
2023/11/05 05:21:30;;;;;;;7.40;6.90;;;;;;;;;;6152324;23;20085;-73
2023/11/05 05:23:56;;;;;;;7.50;6.88;;;;;;;;;;6152126;23;20040;-73
2023/11/05 05:26:22;;;;;;;8.25;7.65;;;;;;;;;;6151960;23;20010;-74
2023/11/05 05:28:48;;;;;;;9.20;8.60;;;;;;;;;;6151209;23;20112;-72
2023/11/05 05:31:14;;;;;;;9.00;8.32;;;;;;;;;;6150675;23;20048;-74
2023/11/05 05:33:41;;;;;;;8.25;7.63;;;;;;;;;;6152437;23;20017;-74
2023/11/05 05:36:07;;;;;;;7.72;7.22;;;;;;;;;;6152981;23;20032;-75
2023/11/05 05:38:33;;;;;;;8.65;7.03;;;;;;;;;;6153976;23;20025;-74
2023/11/05 05:41:02;;;;;;;7.18;6.68;;;;;;;;;;6153983;23;20009;-74
2023/11/05 05:43:28;;;;;;;6.57;6.18;;;;;;;;;;6153602;23;20088;-74
2023/11/05 05:45:54;;;;;;;7.20;6.60;;;;;;;;;;6127989;23;20009;-74
2023/11/05 05:48:20;;;;;;;8.75;7.90;;;;;;;;;;6152268;23;20100;-74
2023/11/05 05:50:46;;;;;;;7.80;7.22;;;;;;;;;;6154182;23;20013;-74
2023/11/05 05:53:12;;;;;;;8.27;7.63;;;;;;;;;;6154384;23;20124;-75
2023/11/05 05:55:39;;;;;;;7.00;6.45;;;;;;;;;;6153913;23;20458;-72
2023/11/05 05:58:05;;;;;;;8.30;7.70;;;;;;;;;;6154893;23;20033;-78
2023/11/05 06:00:31;;;;;;;8.15;7.55;;;;;;;;;;6168243;23;20021;-77
2023/11/05 06:02:57;;;;;;;8.05;7.35;;;;;;;;;;6175442;23;20485;-76
2023/11/05 06:05:23;;;;;;;9.43;6.32;;;;;;;;;;6157331;23;20014;-76
2023/11/05 06:07:49;;;;;;;7.15;6.55;;;;;;;;;;6156127;23;20024;-76
2023/11/05 06:10:16;;;;;;;6.68;6.18;;;;;;;;;;6128595;23;20029;-76
2023/11/05 06:12:41;;;;;;;6.53;6.10;;;;;;;;;;6126766;23;20024;-77
2023/11/05 06:15:09;;;;;;;7.03;6.45;;;;;;;;;;6153537;23;20045;-76
2023/11/05 06:17:35;;;;;;;6.65;6.05;;;;;;;;;;6176123;23;20033;-76
2023/11/05 06:20:05;;;;;;;6.57;5.97;;;;;;;;;;6152427;23;20016;-75
2023/11/05 06:22:32;;;;;;;7.60;7.03;;;;;;;;;;6152736;23;20107;-76
2023/11/05 06:24:58;;;;;;;8.07;7.28;;;;;;;;;;6154696;23;20053;-77
2023/11/05 06:27:24;;;;;;;7.38;6.88;;;;;;;;;;6154170;23;20018;-77
2023/11/05 06:29:50;;;;;;;9.05;8.45;;;;;;;;;;6152716;23;20044;-77
2023/11/05 06:32:16;;;;;;;6.97;6.47;;;;;;;;;;6154114;23;20013;-76
2023/11/05 06:34:42;;;;;;;6.53;6.05;;;;;;;;;;6154079;23;20025;-76
2023/11/05 06:37:08;;;;;;;7.32;5.53;;;;;;;;;;6152625;23;20013;-77
2023/11/05 06:39:34;;;;;;;7.32;6.82;;;;;;;;;;6153848;23;20378;-78
2023/11/05 06:42:00;;;;;;;5.43;4.95;;;;;;;;;;6103517;23;20009;-76
2023/11/05 06:44:27;;;;;;;6.32;5.70;;;;;;;;;;6151767;23;20047;-75
2023/11/05 06:46:53;;;;;;;6.07;5.60;;;;;;;;;;6104088;23;20013;-76
2023/11/05 06:49:19;;;;;;;6.05;5.50;;;;;;;;;;6151940;23;20026;-75
2023/11/05 06:51:45;;;;;;;5.57;5.18;;;;;;;;;;6151627;23;20009;-76
2023/11/05 06:54:11;;;;;;;6.20;5.60;;;;;;;;;;6152404;23;20021;-76
2023/11/05 06:56:37;;;;;;;5.72;5.32;;;;;;;;;;6153450;23;20020;-76
2023/11/05 06:59:03;;;;;;;5.70;5.30;;;;;;;;;;6152010;23;20017;-76
2023/11/05 07:01:29;;;;;;;6.78;6.18;;;;;;;;;;6153635;23;20010;-77
2023/11/05 07:03:57;;;;;;;6.47;5.97;;;;;;;;;;6152018;23;20414;-76
2023/11/05 07:06:22;;;;;;;6.35;5.85;;;;;;;;;;6153544;23;20014;-76
2023/11/05 07:08:48;;;;;;;5.25;4.85;;;;;;;;;;6153121;23;20021;-76
2023/11/05 07:11:16;;;;;;;6.70;6.10;;;;;;;;;;6153521;23;20013;-75
2023/11/05 07:13:41;;;;;;;5.55;5.10;;;;;;;;;;6152950;23;20013;-75
2023/11/05 07:16:09;;;;;;;7.63;6.00;;;;;;;;;;6127391;23;20019;-76
2023/11/05 07:18:35;;;;;;;5.93;5.53;;;;;;;;;;6172267;23;20017;-76
2023/11/05 07:21:01;;;;;;;5.22;4.93;;;;;;;;;;6152257;23;20422;-75
2023/11/05 07:23:27;;;;;;;6.80;6.22;;;;;;;;;;6152451;23;20013;-75
2023/11/05 07:25:54;;;;;;;7.63;7.03;;;;;;;;;;6178582;23;20044;-77
2023/11/05 07:28:20;;;;;;;7.28;6.20;;;;;;;;;;6152654;23;20049;-76
2023/11/05 07:30:46;;;;;;;5.35;4.95;;;;;;;;;;6101476;23;20417;-75
2023/11/05 07:33:12;;;;;;;4.28;3.88;;;;;;;;;;6151587;23;20024;-77
2023/11/05 07:35:39;;;;;;;6.25;5.75;;;;;;;;;;6152547;23;20018;-77
2023/11/05 07:38:08;;;;;;;5.38;4.90;;;;;;;;;;6151976;23;20017;-77
2023/11/05 07:40:35;;;;;;;6.03;5.32;;;;;;;;;;6102271;23;20131;-77
2023/11/05 07:43:01;;;;;;;5.72;5.22;;;;;;;;;;6152257;23;20124;-76
2023/11/05 07:45:27;;;;;;;6.05;5.55;;;;;;;;;;6152602;23;20009;-77
2023/11/05 07:47:53;;;;;;;7.13;6.53;;;;;;;;;;6150779;23;20028;-77
2023/11/05 07:50:20;;;;;;;4.80;4.40;;;;;;;;;;6152680;23;20332;-77
2023/11/05 07:52:45;;;;;;;6.50;6.00;;;;;;;;;;6150920;23;20466;-79
2023/11/05 07:55:11;;;;;;;6.78;5.40;;;;;;;;;;6126980;23;20010;-79
2023/11/05 07:57:38;;;;;;;6.10;5.70;;;;;;;;;;6153793;23;20072;-78
2023/11/05 08:00:05;;;;;;;6.13;5.68;;;;;;;;;;6152919;23;20362;-78
2023/11/05 08:02:37;;;;;;;6.65;6.03;;;;;;;;;;6152505;23;20020;-79
2023/11/05 08:05:04;;;;;;;6.18;5.50;;;;;;;;;;6125362;23;20013;-78
2023/11/05 08:07:30;;;;;;;5.72;5.32;;;;;;;;;;6124490;23;20191;-80
2023/11/05 08:09:57;;;;;;;6.55;5.97;;;;;;;;;;6150748;23;20017;-80
2023/11/05 08:12:23;;;;;;;7.93;7.22;;;;;;;;;;6150550;23;20041;-78
2023/11/05 08:14:50;;;;;;;6.38;5.88;;;;;;;;;;6175651;23;20588;-78
2023/11/05 08:17:16;;;;;;;7.03;6.40;;;;;;;;;;6149408;23;20013;-79
2023/11/05 08:19:42;;;;;;;5.95;5.45;;;;;;;;;;6151536;23;20040;-80
2023/11/05 08:22:10;;;;;;;5.88;5.28;;;;;;;;;;6151409;23;20355;-79
2023/11/05 08:24:36;;;;;;;6.03;5.55;;;;;;;;;;6150112;23;20013;-78
2023/11/05 08:27:02;;;;;;;6.40;5.90;;;;;;;;;;6149344;23;20336;-79
2023/11/05 08:29:27;;;;;;;6.60;6.20;;;;;;;;;;6150294;23;20533;-78
2023/11/05 08:31:53;;;;;;;5.93;5.38;;;;;;;;;;6149774;23;20052;-79
2023/11/05 08:34:19;;;;;;;6.45;5.95;;;;;;;;;;6149370;23;20517;-78
2023/11/05 08:36:45;;;;;;;5.80;5.30;;;;;;;;;;6151299;23;20010;-77
2023/11/05 08:39:12;;;;;;;7.70;6.95;;;;;;;;;;6152028;23;20104;-79
2023/11/05 08:41:37;;;;;;;6.53;6.03;;;;;;;;;;6148933;23;20108;-79
2023/11/05 08:44:04;;;;;;;6.75;6.00;;;;;;;;;;6149308;23;20025;-79
2023/11/05 08:46:30;;;;;;;7.85;7.10;;;;;;;;;;6151396;23;20009;-78
2023/11/05 08:48:56;;;;;;;7.43;6.78;;;;;;;;;;6151991;23;20076;-77
2023/11/05 08:51:26;;;;;;;6.93;6.00;;;;;;;;;;6155145;23;20037;-78
2023/11/05 08:53:52;;;;;;;6.75;6.25;;;;;;;;;;6168947;23;20017;-78
2023/11/05 08:56:19;;;;;;;6.13;5.15;;;;;;;;;;6170789;23;20009;-76
2023/11/05 08:58:45;;;;;;;7.70;7.03;;;;;;;;;;6153526;23;20013;-75
2023/11/05 09:01:12;;;;;;;8.50;7.65;;;;;;;;;;6153274;23;20020;-77
2023/11/05 09:03:38;;;;;;;8.80;7.80;;;;;;;;;;6164507;23;20018;-77
2023/11/05 09:06:04;;;;;;;7.60;6.88;;;;;;;;;;6166589;23;20470;-78
2023/11/05 09:08:31;;;;;;;5.88;5.40;;;;;;;;;;6165647;23;20031;-77
2023/11/05 09:10:57;;;;;;;6.00;5.50;;;;;;;;;;6153753;23;20501;-79
2023/11/05 09:13:22;;;;;;;8.48;7.60;;;;;;;;;;6152379;23;20014;-77
2023/11/05 09:15:50;;;;;;;6.63;6.03;;;;;;;;;;6154606;23;20010;-77
2023/11/05 09:18:16;;;;;;;6.40;5.80;;;;;;;;;;6151716;23;20016;-74
2023/11/05 09:20:43;;;;;;;5.57;4.85;;;;;;;;;;6153966;23;20013;-76
2023/11/05 09:23:09;;;;;;;7.38;6.15;;;;;;;;;;6154321;23;20021;-77
2023/11/05 09:25:35;;;;;;;6.13;5.63;;;;;;;;;;6176839;23;20050;-80
2023/11/05 09:28:02;;;;;;;11.40;7.30;;;;;;;;;;6151570;23;20506;-76
2023/11/05 09:30:28;;;;;;;7.53;5.47;;;;;;;;;;6174259;23;20024;-77
2023/11/05 09:32:54;;;;;;;5.00;4.57;;;;;;;;;;6150652;23;20033;-77
2023/11/05 09:35:20;;;;;;;5.95;5.55;;;;;;;;;;6150793;23;20459;-76
2023/11/05 09:37:46;;;;;;;13.73;5.85;;;;;;;;;;6149625;23;20028;-75
2023/11/05 09:40:12;;;;;;;7.50;6.80;;;;;;;;;;6151458;23;20369;-77
2023/11/05 09:42:42;;;;;;;7.28;6.57;;;;;;;;;;6150089;23;20029;-78
2023/11/05 09:45:11;;;;;;;7.47;6.70;;;;;;;;;;6126052;23;20009;-76
2023/11/05 09:47:40;;;;;;;7.97;7.22;;;;;;;;;;6124057;23;20087;-78
2023/11/05 09:50:09;;;;;;;6.93;6.22;;;;;;;;;;6149796;23;20017;-78
2023/11/05 09:52:40;;;;;;;5.90;5.28;;;;;;;;;;6149366;23;20423;-76
2023/11/05 09:55:07;;;;;;;7.85;7.10;;;;;;;;;;6125442;23;20017;-78
2023/11/05 09:57:33;;;;;;;7.55;6.70;;;;;;;;;;6149591;23;20481;-75
2023/11/05 09:59:58;;;;;;;8.40;7.10;;;;;;;;;;6150444;23;20013;-77
2023/11/05 10:02:24;;;;;;;7.68;6.25;;;;;;;;;;6152026;23;20104;-77
2023/11/05 10:04:50;;;;;;;6.85;6.15;;;;;;;;;;6152180;23;20041;-79
2023/11/05 10:07:17;;;;;;;6.57;5.78;;;;;;;;;;6152177;23;20013;-80
2023/11/05 10:09:42;;;;;;;9.20;5.22;;;;;;;;;;6152546;23;20447;-77
2023/11/05 10:12:09;;;;;;;5.25;4.75;;;;;;;;;;6152618;23;20013;-77
2023/11/05 10:14:35;;;;;;;7.28;6.70;;;;;;;;;;6152971;23;20470;-77
2023/11/05 10:17:01;;;;;;;5.72;5.20;;;;;;;;;;6127772;23;20017;-78
2023/11/05 10:19:27;;;;;;;8.88;4.78;;;;;;;;;;6152990;23;20040;-77
2023/11/05 10:21:54;;;;;;;5.72;5.13;;;;;;;;;;6153353;23;20450;-76
2023/11/05 10:24:26;;;;;;;6.78;5.97;;;;;;;;;;6154842;23;20013;-77
2023/11/05 10:26:52;;;;;;;9.38;6.25;;;;;;;;;;6128083;23;20009;-77
2023/11/05 10:29:19;;;;;;;7.25;5.88;;;;;;;;;;6151732;23;20029;-77
2023/11/05 10:31:45;;;;;;;6.68;5.15;;;;;;;;;;6153397;23;20133;-78
2023/11/05 10:34:11;;;;;;;7.18;5.53;;;;;;;;;;6153898;23;20506;-78
2023/11/05 10:36:37;;;;;;;8.13;5.75;;;;;;;;;;6128563;23;20048;-77
2023/11/05 10:39:05;;;;;;;6.47;5.45;;;;;;;;;;6153402;23;20017;-77
2023/11/05 10:41:30;;;;;;;7.60;6.15;;;;;;;;;;6157843;23;20009;-78
2023/11/05 10:43:57;;;;;;;6.63;5.93;;;;;;;;;;6155879;23;20470;-77
2023/11/05 10:46:23;;;;;;;7.93;5.60;;;;;;;;;;6127090;23;20120;-77
2023/11/05 10:48:50;;;;;;;6.85;6.22;;;;;;;;;;6126747;23;20037;-76
2023/11/05 10:51:18;;;;;;;12.27;6.95;;;;;;;;;;6152356;23;20013;-76
2023/11/05 10:53:44;;;;;;;8.38;5.60;;;;;;;;;;6153015;23;20013;-76
2023/11/05 10:56:29;;;;;;;8.98;5.55;;;;;;;;;;6152760;23;20096;-77
2023/11/05 10:58:57;;;;;;;6.45;5.32;;;;;;;;;;6152326;23;20017;-78
2023/11/05 11:01:26;;;;;;;6.25;5.38;;;;;;;;;;6150606;23;20013;-75
2023/11/05 11:03:56;;;;;;;7.45;5.85;;;;;;;;;;6171390;23;20022;-77
2023/11/05 11:06:22;;;;;;;7.53;5.82;;;;;;;;;;6126109;23;20013;-76
2023/11/05 11:08:55;;;;;;;6.38;5.60;;;;;;;;;;6149645;23;20370;-78
2023/11/05 11:11:20;;;;;;;5.68;5.13;;;;;;;;;;6152569;23;20018;-78
2023/11/05 11:13:54;;;;;;;8.43;4.93;;;;;;;;;;6153411;23;20013;-78
2023/11/05 11:16:21;;;;;;;5.53;5.03;;;;;;;;;;6151573;23;20020;-77
2023/11/05 11:18:49;;;;;;;7.95;5.57;;;;;;;;;;6152334;23;20044;-76
2023/11/05 11:21:15;;;;;;;6.45;5.85;;;;;;;;;;6153117;23;20015;-76
2023/11/05 11:23:42;;;;;;;8.27;6.22;;;;;;;;;;6152877;23;20021;-78
2023/11/05 11:26:21;;;;;;;6.68;5.30;;;;;;;;;;6152583;23;20061;-80
2023/11/05 11:28:57;;;;;;;10.68;6.38;;;;;;;;;;6150036;23;20536;-76
2023/11/05 11:31:24;;;;;;;5.47;5.07;;;;;;;;;;6150544;23;20036;-77
2023/11/05 11:33:52;;;;;;;8.35;5.43;;;;;;;;;;6149712;23;20386;-77
2023/11/05 11:36:18;;;;;;;5.30;4.80;;;;;;;;;;6128508;23;20334;-78
2023/11/05 11:38:44;;;;;;;8.13;5.38;;;;;;;;;;6151884;23;20018;-76
2023/11/05 11:41:12;;;;;;;8.40;6.30;;;;;;;;;;6149058;23;20009;-79
2023/11/05 11:43:38;;;;;;;6.47;5.68;;;;;;;;;;6150688;23;20025;-79
2023/11/05 11:46:04;;;;;;;6.90;6.30;;;;;;;;;;6156831;23;20020;-79
2023/11/05 11:48:30;;;;;;;8.10;7.30;;;;;;;;;;6165804;23;20025;-78
2023/11/05 11:51:02;;;;;;;7.95;6.03;;;;;;;;;;6171477;23;20013;-77
2023/11/05 11:53:31;;;;;;;7.30;6.15;;;;;;;;;;6159161;23;20081;-78
2023/11/05 11:55:57;;;;;;;10.27;6.35;;;;;;;;;;6155221;23;20064;-78
2023/11/05 11:58:29;;;;;;;7.03;5.82;;;;;;;;;;6186436;23;20040;-81
2023/11/05 12:00:57;;;;;;;11.88;6.45;;;;;;;;;;6152348;23;20414;-76
2023/11/05 12:03:23;;;;;;;6.30;5.70;;;;;;;;;;6126298;23;20021;-76
2023/11/05 12:05:49;;;;;;;8.05;5.57;;;;;;;;;;6151973;23;20072;-76
2023/11/05 12:08:17;;;;;;;7.15;5.57;;;;;;;;;;6150124;23;20021;-76
2023/11/05 12:10:44;;;;;;;7.90;6.10;;;;;;;;;;6150568;23;20028;-74
2023/11/05 12:13:11;;;;;;;9.38;5.82;;;;;;;;;;6152617;23;20049;-78
2023/11/05 12:15:38;;;;;;;7.28;5.82;;;;;;;;;;6152369;23;20096;-76
2023/11/05 12:18:05;;;;;;;10.68;6.28;;;;;;;;;;6126985;23;20088;-77
2023/11/05 12:20:31;;;;;;;8.18;7.38;;;;;;;;;;6152453;23;20018;-76
2023/11/05 12:22:59;;;;;;;8.73;7.28;;;;;;;;;;6126307;23;20017;-77
2023/11/05 12:25:25;;;;;;;6.65;5.95;;;;;;;;;;6151626;23;20358;-81
2023/11/05 12:27:51;;;;;;;7.90;5.88;;;;;;;;;;6154306;23;20056;-79
2023/11/05 12:30:21;;;;;;;7.47;6.78;;;;;;;;;;6126263;23;20021;-79
2023/11/05 12:32:50;;;;;;;10.85;8.05;;;;;;;;;;6152223;23;20351;-80
2023/11/05 12:35:16;;;;;;;7.18;6.10;;;;;;;;;;6150305;23;20049;-79
2023/11/05 12:37:42;;;;;;;10.43;8.15;;;;;;;;;;6152672;23;20014;-80
2023/11/05 12:40:09;;;;;;;9.13;8.27;;;;;;;;;;6151089;23;20020;-76
2023/11/05 12:42:38;;;;;;;8.63;7.72;;;;;;;;;;6126485;23;20060;-79
2023/11/05 12:45:04;;;;;;;11.35;7.70;;;;;;;;;;6152280;23;20458;-77
2023/11/05 12:47:32;;;;;;;8.55;5.90;;;;;;;;;;6152075;23;20463;-77
2023/11/05 12:49:59;;;;;;;9.93;6.65;;;;;;;;;;6151822;23;20013;-78
2023/11/05 12:52:25;;;;;;;11.43;7.35;;;;;;;;;;6151936;23;20028;-77
2023/11/05 12:54:52;;;;;;;12.15;7.40;;;;;;;;;;6151991;23;20053;-77
2023/11/05 12:57:19;;;;;;;8.52;7.30;;;;;;;;;;6151332;23;20014;-76
2023/11/05 12:59:45;;;;;;;8.13;6.45;;;;;;;;;;6151443;23;20012;-77
2023/11/05 13:02:11;;;;;;;13.07;6.38;;;;;;;;;;6128290;23;20100;-79
2023/11/05 13:04:37;;;;;;;8.02;6.90;;;;;;;;;;6157213;23;20590;-79
2023/11/05 13:07:04;;;;;;;8.75;5.30;;;;;;;;;;6167593;23;20045;-80
2023/11/05 13:09:30;;;;;;;8.90;6.38;;;;;;;;;;6165404;23;20032;-79
2023/11/05 13:11:56;;;;;;;8.82;6.13;;;;;;;;;;6160280;23;20369;-79
2023/11/05 13:14:22;;;;;;;8.13;5.72;;;;;;;;;;6151633;23;20072;-78
2023/11/05 13:16:49;;;;;;;7.60;5.65;;;;;;;;;;6152218;23;20084;-78
2023/11/05 13:19:14;;;;;;;7.20;5.88;;;;;;;;;;6151135;23;20013;-78
2023/11/05 13:21:41;;;;;;;10.48;5.60;;;;;;;;;;6151243;23;20013;-78
2023/11/05 13:24:06;;;;;;;11.05;6.47;;;;;;;;;;6151654;23;20162;-79
2023/11/05 13:26:33;;;;;;;9.35;6.80;;;;;;;;;;6175982;23;20017;-78
2023/11/05 13:28:59;;;;;;;13.60;6.28;;;;;;;;;;6151640;23;20044;-77
2023/11/05 13:31:26;;;;;;;8.07;6.75;;;;;;;;;;6151796;23;20519;-77
2023/11/05 13:33:52;;;;;;;8.63;6.32;;;;;;;;;;6152332;23;20414;-75
2023/11/05 13:36:19;;;;;;;7.88;6.38;;;;;;;;;;6151467;23;20072;-78
2023/11/05 13:38:45;;;;;;;8.98;5.90;;;;;;;;;;6149418;23;20026;-78
2023/11/05 13:41:15;;;;;;;6.60;5.97;;;;;;;;;;6153247;23;20017;-79
2023/11/05 13:43:41;;;;;;;7.63;6.10;;;;;;;;;;6151069;23;20035;-78
2023/11/05 13:46:07;;;;;;;11.27;7.28;;;;;;;;;;6154056;23;20545;-80
2023/11/05 13:48:33;;;;;;;8.77;6.78;;;;;;;;;;6155358;23;20021;-77
2023/11/05 13:50:59;;;;;;;9.95;7.38;;;;;;;;;;6152680;23;20009;-79
2023/11/05 13:53:25;;;;;;;8.48;7.50;;;;;;;;;;6151668;23;20403;-78
2023/11/05 13:55:51;;;;;;;7.70;6.90;;;;;;;;;;6175598;23;20485;-78
2023/11/05 13:58:19;;;;;;;9.82;6.78;;;;;;;;;;6151903;23;20080;-78
2023/11/05 14:00:45;;;;;;;8.70;7.05;;;;;;;;;;6151944;23;20045;-79
2023/11/05 14:03:11;;;;;;;13.38;6.75;;;;;;;;;;6151269;23;20043;-77
2023/11/05 14:05:37;;;;;;;7.00;6.30;;;;;;;;;;6154216;23;20362;-81
2023/11/05 14:08:04;;;;;;;9.90;7.28;;;;;;;;;;6153299;23;20021;-78
2023/11/05 14:10:30;;;;;;;12.02;6.40;;;;;;;;;;6154237;23;20020;-78
2023/11/05 14:12:56;;;;;;;7.75;6.78;;;;;;;;;;6152274;23;20359;-79
2023/11/05 14:15:22;;;;;;;8.02;7.03;;;;;;;;;;6153339;23;20018;-77
2023/11/05 14:17:50;;;;;;;10.88;7.80;;;;;;;;;;6151370;23;20105;-79
2023/11/05 14:20:16;;;;;;;12.27;6.15;;;;;;;;;;6153573;23;20027;-79
2023/11/05 14:22:42;;;;;;;12.57;7.15;;;;;;;;;;6153610;23;20096;-77
2023/11/05 14:25:08;;;;;;;9.70;7.88;;;;;;;;;;6153586;23;20019;-78
2023/11/05 14:27:35;;;;;;;12.65;8.45;;;;;;;;;;6152253;23;20017;-78
2023/11/05 14:30:02;;;;;;;7.13;6.47;;;;;;;;;;6152773;23;20482;-77
2023/11/05 14:32:30;;;;;;;9.93;7.82;;;;;;;;;;6153692;23;20013;-78